Time;durP1;ratioP1;P1;durP2;ratioP2;P2;SDS_P1;SDS_P2;PMS_P1;PMS_P2;Temp;Humidity;BMP_temperature;BMP_pressure;BME280_temperature;BME280_humidity;BME280_pressure;Samples;Min_cycle;Max_cycle;Signal;HPM_P1;HPM_P2
2023/05/01 00:02:06;;;;;;;;;;;;;;;16.21;53.75;100728.16;5019296;28;1047;-54
2023/05/01 00:04:32;;;;;;;;;;;;;;;16.33;53.73;100722.44;5019253;28;1197;-55
2023/05/01 00:06:58;;;;;;;;;;;;;;;17.83;50.02;100736.69;5025044;28;1910;-56
2023/05/01 00:09:25;;;;;;;;;;;;;;;16.85;52.31;100728.72;5019314;28;1182;-55
2023/05/01 00:11:51;;;;;;;;;;;;;;;16.49;53.17;100741.66;5019342;28;1112;-54
2023/05/01 00:14:16;;;;;;;;;;;;;;;16.72;52.92;100740.28;5018624;28;1071;-54
2023/05/01 00:16:42;;;;;;;;;;;;;;;17.61;50.50;100737.06;5019074;28;1095;-55
2023/05/01 00:19:08;;;;;;;;;;;;;;;16.74;52.79;100743.56;5031632;28;1063;-56
2023/05/01 00:21:33;;;;;;;;;;;;;;;16.41;53.28;100734.78;5019050;28;1163;-55
2023/05/01 00:23:59;;;;;;;;;;;;;;;16.19;53.95;100740.53;5018606;28;1064;-56
2023/05/01 00:26:29;;;;;;;;;;;;;;;16.28;53.77;100747.13;5018901;28;1981;-55
2023/05/01 00:28:54;;;;;;;;;;;;;;;17.71;50.38;100741.72;5018609;28;1071;-56
2023/05/01 00:31:20;;;;;;;;;;;;;;;16.79;52.46;100746.31;5023863;28;1541;-56
2023/05/01 00:33:45;;;;;;;;;;;;;;;16.43;53.30;100755.34;5019211;28;1123;-56
2023/05/01 00:36:11;;;;;;;;;;;;;;;16.17;53.91;100751.78;5021219;28;1171;-56
2023/05/01 00:38:36;;;;;;;;;;;;;;;17.59;50.77;100742.84;5018284;28;1191;-52
2023/05/01 00:41:02;;;;;;;;;;;;;;;16.84;52.37;100742.75;5018004;28;1110;-55
2023/05/01 00:43:27;;;;;;;;;;;;;;;16.46;53.43;100754.00;5024239;28;1016;-55
2023/05/01 00:45:53;;;;;;;;;;;;;;;16.24;53.64;100756.97;5026358;28;1163;-53
2023/05/01 00:48:18;;;;;;;;;;;;;;;17.16;51.87;100755.38;5018595;28;1983;-53
2023/05/01 00:50:44;;;;;;;;;;;;;;;17.21;51.40;100750.69;5018657;28;1072;-55
2023/05/01 00:53:09;;;;;;;;;;;;;;;16.65;52.99;100748.81;5018169;28;1110;-54
2023/05/01 00:55:35;;;;;;;;;;;;;;;16.37;53.47;100761.94;5025637;28;941;-56
2023/05/01 00:58:01;;;;;;;;;;;;;;;16.70;52.97;100761.69;5018230;28;1159;-55
2023/05/01 01:00:28;;;;;;;;;;;;;;;17.38;51.20;100758.59;5016866;28;1124;-55
2023/05/01 01:02:53;;;;;;;;;;;;;;;16.64;53.12;100758.13;5016831;28;1193;-55
2023/05/01 01:05:19;;;;;;;;;;;;;;;16.36;53.46;100768.53;5017152;28;1303;-54
2023/05/01 01:07:54;;;;;;;;;;;;;;;16.18;53.84;100777.28;5018156;28;1970;-55
2023/05/01 01:10:28;;;;;;;;;;;;;;;17.74;50.60;100766.72;5017340;28;1060;-54
2023/05/01 01:13:06;;;;;;;;;;;;;;;16.84;52.49;100773.75;5016857;28;1136;-54
2023/05/01 01:15:39;;;;;;;;;;;;;;;16.47;53.27;100776.78;5016829;28;1132;-56
2023/05/01 01:18:09;;;;;;;;;;;;;;;16.23;53.61;100771.81;5022486;28;1206;-55
2023/05/01 01:20:45;;;;;;;;;;;;;;;16.39;53.63;100776.22;5019490;28;1012;-56
2023/05/01 01:23:19;;;;;;;;;;;;;;;17.65;50.49;100768.41;5017411;28;1130;-55
2023/05/01 01:26:00;;;;;;;;;;;;;;;16.65;52.98;100772.66;5018272;28;1158;-55
2023/05/01 01:28:35;;;;;;;;;;;;;;;16.33;53.86;100771.00;5032322;28;1988;-55
2023/05/01 01:31:08;;;;;;;;;;;;;;;16.23;53.88;100767.16;5020845;28;858;-56
2023/05/01 01:33:37;;;;;;;;;;;;;;;17.70;50.52;100768.41;5017548;28;1027;-55
2023/05/01 01:36:06;;;;;;;;;;;;;;;16.89;52.30;100770.25;5018890;28;1163;-55
2023/05/01 01:38:35;;;;;;;;;;;;;;;16.49;53.14;100769.91;5017608;28;1079;-54
2023/05/01 01:41:03;;;;;;;;;;;;;;;16.24;53.86;100777.03;5016518;28;1140;-56
2023/05/01 01:43:30;;;;;;;;;;;;;;;17.71;50.56;100775.56;5027659;28;1146;-53
2023/05/01 01:45:57;;;;;;;;;;;;;;;16.96;52.35;100773.53;5017527;28;1221;-55
2023/05/01 01:48:24;;;;;;;;;;;;;;;16.51;53.32;100783.34;5016951;28;1981;-55
2023/05/01 01:50:49;;;;;;;;;;;;;;;16.27;53.79;100785.81;5017557;28;1076;-55
2023/05/01 01:53:16;;;;;;;;;;;;;;;16.11;53.75;100769.31;5015166;28;1430;-53
2023/05/01 01:55:43;;;;;;;;;;;;;;;17.42;51.17;100776.19;5019613;28;1195;-57
2023/05/01 01:58:09;;;;;;;;;;;;;;;17.00;52.12;100774.63;5016133;28;1165;-57
2023/05/01 02:00:35;;;;;;;;;;;;;;;16.46;53.40;100775.13;5032407;28;1091;-57
2023/05/01 02:03:01;;;;;;;;;;;;;;;16.37;53.84;100781.16;5015812;28;1154;-57
2023/05/01 02:05:26;;;;;;;;;;;;;;;17.71;50.26;100786.56;5017280;28;1068;-57
2023/05/01 02:07:53;;;;;;;;;;;;;;;16.81;52.50;100787.25;5026754;28;1960;-57
2023/05/01 02:10:18;;;;;;;;;;;;;;;16.46;53.28;100786.13;5016146;28;1214;-57
2023/05/01 02:12:44;;;;;;;;;;;;;;;16.26;53.85;100793.22;5016952;28;1079;-57
2023/05/01 02:15:10;;;;;;;;;;;;;;;16.31;53.81;100793.22;5016774;28;1067;-57
2023/05/01 02:17:37;;;;;;;;;;;;;;;17.72;50.35;100790.91;5015556;28;1230;-57
2023/05/01 02:20:04;;;;;;;;;;;;;;;16.79;52.75;100794.91;5022199;28;956;-57
2023/05/01 02:22:29;;;;;;;;;;;;;;;16.47;53.54;100798.75;5032083;28;1226;-56
2023/05/01 02:24:55;;;;;;;;;;;;;;;16.25;53.73;100802.53;5016910;28;1067;-55
2023/05/01 02:27:26;;;;;;;;;;;;;;;17.75;50.32;100801.38;5015627;28;1906;-54
2023/05/01 02:29:52;;;;;;;;;;;;;;;16.91;52.10;100798.25;5015655;28;1144;-55
2023/05/01 02:32:18;;;;;;;;;;;;;;;16.48;53.24;100808.63;5027438;28;933;-55
2023/05/01 02:34:44;;;;;;;;;;;;;;;16.25;53.93;100803.34;5015141;28;1538;-54
2023/05/01 02:37:10;;;;;;;;;;;;;;;16.73;52.86;100808.66;5019797;28;1163;-54
2023/05/01 02:39:36;;;;;;;;;;;;;;;17.45;50.86;100805.84;5014993;28;1546;-54
2023/05/01 02:42:02;;;;;;;;;;;;;;;16.67;53.04;100809.75;5015567;28;1375;-57
2023/05/01 02:44:29;;;;;;;;;;;;;;;16.38;53.62;100807.53;5008415;28;1129;-57
2023/05/01 02:46:55;;;;;;;;;;;;;;;16.20;53.96;100811.59;5015243;28;1990;-56
2023/05/01 02:49:21;;;;;;;;;;;;;;;16.74;52.84;100810.28;5014824;28;1104;-55
2023/05/01 02:51:46;;;;;;;;;;;;;;;17.48;50.75;100823.72;4998771;28;1150;-56
2023/05/01 02:54:12;;;;;;;;;;;;;;;16.68;52.81;100832.53;5015058;28;1238;-56
2023/05/01 02:56:37;;;;;;;;;;;;;;;16.39;53.54;100825.59;4998872;28;1068;-58
2023/05/01 02:59:03;;;;;;;;;;;;;;;17.02;52.35;100824.59;5014409;28;1203;-55
2023/05/01 03:01:29;;;;;;;;;;;;;;;17.15;51.71;100827.91;5014748;28;1314;-56
2023/05/01 03:03:54;;;;;;;;;;;;;;;16.57;53.09;100829.75;5016654;28;1231;-57
2023/05/01 03:06:20;;;;;;;;;;;;;;;16.34;53.79;100833.84;5020562;28;1914;-57
2023/05/01 03:08:46;;;;;;;;;;;;;;;16.18;54.03;100846.69;5015787;28;1168;-55
2023/05/01 03:11:12;;;;;;;;;;;;;;;17.70;50.40;100847.34;5018759;28;1084;-53
2023/05/01 03:13:37;;;;;;;;;;;;;;;16.86;52.55;100847.66;5019213;28;1578;-53
2023/05/01 03:16:03;;;;;;;;;;;;;;;16.46;53.33;100841.00;5018837;28;1432;-56
2023/05/01 03:18:29;;;;;;;;;;;;;;;16.26;53.66;100859.06;5036251;28;1105;-57
2023/05/01 03:20:57;;;;;;;;;;;;;;;17.50;51.12;100845.44;5025590;28;1317;-55
2023/05/01 03:23:25;;;;;;;;;;;;;;;16.92;52.08;100860.31;5006424;28;1339;-55
2023/05/01 03:25:51;;;;;;;;;;;;;;;16.52;53.30;100853.63;5018979;28;1344;-51
2023/05/01 03:28:17;;;;;;;;;;;;;;;16.29;53.80;100864.00;5018585;28;1910;-56
2023/05/01 03:30:43;;;;;;;;;;;;;;;16.11;54.09;100861.75;5020239;28;1194;-55
2023/05/01 03:33:09;;;;;;;;;;;;;;;17.23;51.87;100863.88;5018892;28;1135;-59
2023/05/01 03:35:36;;;;;;;;;;;;;;;17.07;51.97;100867.75;5019277;28;1186;-60
2023/05/01 03:38:03;;;;;;;;;;;;;;;16.50;53.25;100864.91;5024128;28;1399;-59
2023/05/01 03:41:07;;;;;;;;;;;;;;;16.22;53.92;100872.50;4991886;28;1277;-58
2023/05/01 03:43:53;;;;;;;;;;;;;;;17.22;51.92;100876.00;5012920;28;1210;-58
2023/05/01 03:46:29;;;;;;;;;;;;;;;17.09;51.61;100885.59;5017876;28;1991;-58
2023/05/01 03:48:55;;;;;;;;;;;;;;;16.49;53.25;100889.88;5018144;28;1204;-59
2023/05/01 03:51:21;;;;;;;;;;;;;;;16.27;53.87;100887.31;5018116;28;1235;-56
2023/05/01 03:53:47;;;;;;;;;;;;;;;16.06;54.19;100889.97;5017991;28;1074;-59
2023/05/01 03:56:13;;;;;;;;;;;;;;;17.10;51.96;100898.25;5018258;28;1208;-58
2023/05/01 03:58:38;;;;;;;;;;;;;;;17.14;51.75;100894.94;5018227;28;1150;-60
2023/05/01 04:01:04;;;;;;;;;;;;;;;16.52;53.28;100892.06;5018264;28;1246;-58
2023/05/01 04:03:30;;;;;;;;;;;;;;;16.58;53.56;100899.25;5017709;28;1207;-59
2023/05/01 04:05:56;;;;;;;;;;;;;;;17.42;50.75;100897.13;5018269;28;1024;-58
2023/05/01 04:08:22;;;;;;;;;;;;;;;16.68;52.92;100893.75;5020607;28;1980;-58
2023/05/01 04:10:47;;;;;;;;;;;;;;;16.35;53.58;100898.59;5016686;28;1055;-58
2023/05/01 04:13:13;;;;;;;;;;;;;;;16.23;53.77;100907.06;5016557;28;1747;-58
2023/05/01 04:15:38;;;;;;;;;;;;;;;16.17;54.04;100905.41;5016033;28;1186;-57
2023/05/01 04:18:04;;;;;;;;;;;;;;;17.61;50.70;100910.31;5017935;28;1079;-58
2023/05/01 04:20:30;;;;;;;;;;;;;;;16.72;52.79;100913.28;5027794;28;1112;-58
2023/05/01 04:22:56;;;;;;;;;;;;;;;16.40;53.74;100914.28;5017535;28;1142;-55
2023/05/01 04:25:22;;;;;;;;;;;;;;;16.15;54.04;100918.56;5017887;28;1189;-57
2023/05/01 04:27:50;;;;;;;;;;;;;;;17.64;50.72;100912.50;5012065;28;1914;-55
2023/05/01 04:30:15;;;;;;;;;;;;;;;16.91;52.44;100916.34;5011332;28;1032;-55
2023/05/01 04:32:41;;;;;;;;;;;;;;;16.48;53.21;100926.63;5031676;28;1305;-56
2023/05/01 04:35:07;;;;;;;;;;;;;;;16.22;54.08;100913.66;5043622;28;1279;-54
2023/05/01 04:37:34;;;;;;;;;;;;;;;16.26;53.97;100924.91;5014593;28;1163;-55
2023/05/01 04:40:00;;;;;;;;;;;;;;;17.68;50.57;100926.53;5017425;28;1195;-57
2023/05/01 04:42:29;;;;;;;;;;;;;;;16.73;52.74;100934.13;5017166;28;1352;-60
2023/05/01 04:44:55;;;;;;;;;;;;;;;16.42;53.70;100937.63;5018075;28;1156;-55
2023/05/01 04:47:20;;;;;;;;;;;;;;;16.29;54.04;100938.09;5017188;28;1973;-57
2023/05/01 04:49:46;;;;;;;;;;;;;;;17.67;50.72;100942.22;5010346;28;1096;-57
2023/05/01 04:52:12;;;;;;;;;;;;;;;16.76;52.72;100942.66;4999406;28;1299;-58
2023/05/01 04:54:50;;;;;;;;;;;;;;;16.38;53.81;100939.25;5017307;28;1328;-58
2023/05/01 04:57:16;;;;;;;;;;;;;;;16.23;53.88;100948.22;5028848;28;1505;-58
2023/05/01 04:59:42;;;;;;;;;;;;;;;16.58;53.29;100943.16;5033444;28;1314;-58
2023/05/01 05:02:09;;;;;;;;;;;;;;;17.45;50.96;100951.56;5016801;28;1226;-58
2023/05/01 05:04:34;;;;;;;;;;;;;;;17.69;50.90;100944.69;5016953;28;1243;-57
2023/05/01 05:07:01;;;;;;;;;;;;;;;16.67;52.07;100949.75;5013557;28;1906;-57
2023/05/01 05:09:44;;;;;;;;;;;;;;;16.28;50.97;100954.84;5017040;28;1386;-60
2023/05/01 05:12:10;;;;;;;;;;;;;;;16.07;50.36;100950.06;5016147;28;1136;-59
2023/05/01 05:14:35;;;;;;;;;;;;;;;16.03;49.12;100953.59;5016369;28;1123;-59
2023/05/01 05:17:01;;;;;;;;;;;;;;;16.17;50.33;100948.47;5016652;28;1245;-59
2023/05/01 05:19:26;;;;;;;;;;;;;;;16.47;51.16;100961.50;5018318;28;1332;-59
2023/05/01 05:21:52;;;;;;;;;;;;;;;16.13;50.37;100955.56;5017205;28;1058;-59
2023/05/01 05:24:17;;;;;;;;;;;;;;;17.20;51.00;100951.56;5005005;28;1163;-60
2023/05/01 05:26:43;;;;;;;;;;;;;;;16.60;51.18;100957.44;5016353;28;1965;-60
2023/05/01 05:29:09;;;;;;;;;;;;;;;16.29;50.61;100960.06;5016592;28;1167;-59
2023/05/01 05:31:34;;;;;;;;;;;;;;;17.06;51.27;100965.00;5017209;28;1131;-59
2023/05/01 05:34:00;;;;;;;;;;;;;;;16.45;50.83;100965.59;5016405;28;1225;-60
2023/05/01 05:36:27;;;;;;;;;;;;;;;16.22;49.99;100962.22;5018749;28;1425;-60
2023/05/01 05:38:53;;;;;;;;;;;;;;;16.08;49.19;100970.91;5016515;28;1391;-60
2023/05/01 05:41:20;;;;;;;;;;;;;;;15.99;48.64;100975.25;5016050;28;1300;-59
2023/05/01 05:43:48;;;;;;;;;;;;;;;16.94;50.52;100973.47;5016068;28;1160;-59
2023/05/01 05:46:13;;;;;;;;;;;;;;;16.35;50.24;100978.19;5014510;28;1241;-59
2023/05/01 05:48:40;;;;;;;;;;;;;;;16.20;49.25;100969.88;5016085;28;2194;-59
2023/05/01 05:51:06;;;;;;;;;;;;;;;16.15;48.58;100972.63;5016294;28;1607;-59
2023/05/01 05:53:33;;;;;;;;;;;;;;;17.09;49.82;100978.19;5016226;28;1170;-60
2023/05/01 05:55:58;;;;;;;;;;;;;;;16.37;50.00;100975.19;5017536;28;1112;-60
2023/05/01 05:58:24;;;;;;;;;;;;;;;17.53;50.18;100977.69;5016336;28;1147;-59
2023/05/01 06:00:51;;;;;;;;;;;;;;;17.08;50.69;100974.63;5016921;28;1076;-60
2023/05/01 06:03:18;;;;;;;;;;;;;;;16.57;50.38;100975.25;5023709;28;1828;-61
2023/05/01 06:05:44;;;;;;;;;;;;;;;16.45;49.22;100988.38;5020827;28;1331;-60
2023/05/01 06:08:10;;;;;;;;;;;;;;;16.30;48.76;100980.91;5021204;28;1918;-60
2023/05/01 06:10:39;;;;;;;;;;;;;;;16.86;49.88;100987.75;5023524;28;1051;-59
2023/05/01 06:13:09;;;;;;;;;;;;;;;16.66;50.32;100982.97;5017238;28;1100;-60
2023/05/01 06:15:35;;;;;;;;;;;;;;;16.38;49.81;100985.91;5017262;28;1138;-60
2023/05/01 06:18:03;;;;;;;;;;;;;;;16.42;49.78;101000.75;5015542;28;1869;-59
2023/05/01 06:20:28;;;;;;;;;;;;;;;16.70;49.98;100995.91;5020149;28;1438;-60
2023/05/01 06:22:54;;;;;;;;;;;;;;;16.41;49.23;100998.25;4999375;28;1228;-60
2023/05/01 06:25:25;;;;;;;;;;;;;;;17.30;49.22;101008.47;5015001;28;1279;-60
2023/05/01 06:27:50;;;;;;;;;;;;;;;16.58;49.93;101003.56;5016811;28;1968;-59
2023/05/01 06:30:18;;;;;;;;;;;;;;;16.36;49.26;101001.78;5015450;28;1306;-59
2023/05/01 06:32:47;;;;;;;;;;;;;;;16.24;48.74;101014.91;5023072;28;1799;-60
2023/05/01 06:35:14;;;;;;;;;;;;;;;17.08;49.23;101013.09;5018698;28;1229;-62
2023/05/01 06:37:40;;;;;;;;;;;;;;;16.46;49.30;101019.41;5021899;28;1477;-57
2023/05/01 06:40:07;;;;;;;;;;;;;;;16.30;48.91;101011.09;5008313;28;1417;-58
2023/05/01 06:42:32;;;;;;;;;;;;;;;16.17;48.38;101014.31;4995452;28;1223;-55
2023/05/01 06:45:00;;;;;;;;;;;;;;;16.07;47.81;101015.06;5006874;28;1126;-55
2023/05/01 06:47:26;;;;;;;;;;;;;;;16.40;48.22;101024.06;5016345;28;1906;-54
2023/05/01 06:49:52;;;;;;;;;;;;;;;16.71;49.17;101024.19;5016561;28;1210;-54
2023/05/01 06:52:17;;;;;;;;;;;;;;;16.34;49.04;101028.69;5016380;28;949;-55
2023/05/01 06:54:43;;;;;;;;;;;;;;;17.78;48.79;101031.88;5015133;28;1262;-57
2023/05/01 06:57:08;;;;;;;;;;;;;;;16.83;49.70;101034.94;5022601;28;1218;-56
2023/05/01 06:59:34;;;;;;;;;;;;;;;16.50;49.29;101031.53;5014918;28;1068;-56
2023/05/01 07:02:00;;;;;;;;;;;;;;;16.29;48.51;101039.63;5016254;28;1090;-53
2023/05/01 07:04:25;;;;;;;;;;;;;;;16.24;47.91;101039.59;5015558;28;947;-53
2023/05/01 07:06:51;;;;;;;;;;;;;;;16.15;47.88;101050.25;5016066;28;1973;-54
2023/05/01 07:09:16;;;;;;;;;;;;;;;16.54;48.45;101047.19;5021880;28;1024;-54
2023/05/01 07:11:42;;;;;;;;;;;;;;;16.75;49.20;101048.09;5016186;28;1139;-51
2023/05/01 07:14:07;;;;;;;;;;;;;;;16.40;48.85;101040.53;5014693;28;1540;-51
2023/05/01 07:16:33;;;;;;;;;;;;;;;16.22;48.40;101053.56;5016141;28;1091;-54
2023/05/01 07:18:58;;;;;;;;;;;;;;;16.18;47.71;101043.41;5002676;28;1242;-56
2023/05/01 07:21:24;;;;;;;;;;;;;;;16.82;48.43;101053.34;5026202;28;1130;-57
2023/05/01 07:23:49;;;;;;;;;;;;;;;17.05;49.25;101056.75;5022316;28;1055;-56
2023/05/01 07:26:15;;;;;;;;;;;;;;;16.49;49.16;101057.31;5024091;28;1118;-57
2023/05/01 07:28:41;;;;;;;;;;;;;;;18.18;48.17;101056.88;5016245;28;1918;-56
2023/05/01 07:31:08;;;;;;;;;;;;;;;17.06;50.09;101064.72;5016331;28;1083;-51
2023/05/01 07:33:33;;;;;;;;;;;;;;;16.69;49.51;101062.91;5021562;28;1103;-49
2023/05/01 07:35:59;;;;;;;;;;;;;;;16.53;48.92;101062.00;5016854;28;1076;-51
2023/05/01 07:38:25;;;;;;;;;;;;;;;16.42;48.19;101080.34;5017656;28;1147;-55
2023/05/01 07:40:53;;;;;;;;;;;;;;;16.36;47.60;101066.84;5016487;28;1213;-54
2023/05/01 07:43:19;;;;;;;;;;;;;;;17.35;48.59;101078.00;5016329;28;1175;-57
2023/05/01 07:45:55;;;;;;;;;;;;;;;16.69;49.29;101073.06;5027118;28;1048;-55
2023/05/01 07:48:20;;;;;;;;;;;;;;;16.99;49.32;101083.38;5002842;28;1973;-53
2023/05/01 07:50:46;;;;;;;;;;;;;;;17.23;49.41;101080.16;5017518;28;1084;-55
2023/05/01 07:53:11;;;;;;;;;;;;;;;16.69;49.60;101089.53;5006452;28;1060;-54
2023/05/01 07:55:37;;;;;;;;;;;;;;;16.56;48.74;101091.69;5019325;28;1079;-48
2023/05/01 07:58:03;;;;;;;;;;;;;;;16.43;48.33;101089.41;5025942;28;1012;-49
2023/05/01 08:00:28;;;;;;;;;;;;;;;16.85;48.79;101106.94;5020640;28;1074;-52
2023/05/01 08:02:54;;;;;;;;;;;;;;;17.02;48.98;101104.81;5018723;28;1084;-51
2023/05/01 08:05:19;;;;;;;;;;;;;;;16.55;49.00;101106.50;5019226;28;1012;-52
2023/05/01 08:07:45;;;;;;;;;;;;;;;16.43;48.51;101105.88;5019247;28;1911;-53
2023/05/01 08:10:10;;;;;;;;;;;;;;;16.37;47.68;101107.75;5019281;28;860;-52
2023/05/01 08:12:36;;;;;;;;;;;;;;;16.32;47.36;101113.19;5019195;28;1174;-51
2023/05/01 08:15:01;;;;;;;;;;;;;;;17.33;48.28;101124.16;5015361;28;1131;-51
2023/05/01 08:17:27;;;;;;;;;;;;;;;16.59;48.95;101120.50;5008879;28;1052;-52
2023/05/01 08:19:55;;;;;;;;;;;;;;;16.45;48.18;101124.81;5002312;28;1360;-50
2023/05/01 08:22:21;;;;;;;;;;;;;;;16.29;47.70;101115.66;5016640;28;854;-51
2023/05/01 08:24:46;;;;;;;;;;;;;;;16.24;47.22;101124.66;5017236;28;1223;-53
2023/05/01 08:27:12;;;;;;;;;;;;;;;16.43;47.85;101122.34;5017815;28;1906;-51
2023/05/01 08:29:37;;;;;;;;;;;;;;;16.86;48.17;101114.91;5023997;28;1280;-53
2023/05/01 08:32:03;;;;;;;;;;;;;;;16.40;48.14;101111.88;5026544;28;1430;-52
2023/05/01 08:34:28;;;;;;;;;;;;;;;16.83;48.23;101109.09;5028285;28;1465;-50
2023/05/01 08:36:54;;;;;;;;;;;;;;;16.95;48.44;101123.47;5026440;28;1173;-52
2023/05/01 08:39:20;;;;;;;;;;;;;;;16.57;48.50;101115.28;5028198;28;1168;-50
2023/05/01 08:41:45;;;;;;;;;;;;;;;16.47;47.71;101111.66;5027611;28;1485;-52
2023/05/01 08:44:12;;;;;;;;;;;;;;;17.33;48.13;101115.91;5027597;28;1207;-53
2023/05/01 08:46:52;;;;;;;;;;;;;;;16.95;48.49;101115.22;5026313;28;1971;-53
2023/05/01 08:49:19;;;;;;;;;;;;;;;16.54;48.50;101121.31;5026921;28;1407;-51
2023/05/01 08:51:46;;;;;;;;;;;;;;;16.45;47.97;101120.13;5027180;28;1403;-48
2023/05/01 08:54:12;;;;;;;;;;;;;;;16.34;47.45;101119.25;5027121;28;1253;-49
2023/05/01 08:56:37;;;;;;;;;;;;;;;17.40;47.71;101113.75;5016137;28;1138;-50
2023/05/01 08:59:03;;;;;;;;;;;;;;;16.67;48.69;101113.69;5050857;28;934;-50
2023/05/01 09:01:31;;;;;;;;;;;;;;;16.49;48.08;101131.44;5017845;28;1118;-53
2023/05/01 09:03:57;;;;;;;;;;;;;;;16.45;47.38;101120.13;5022873;28;1187;-49
2023/05/01 09:06:22;;;;;;;;;;;;;;;17.42;47.71;101121.75;5018019;28;1118;-51
2023/05/01 09:08:48;;;;;;;;;;;;;;;16.60;48.84;101124.91;5018383;28;1932;-52
2023/05/01 09:11:13;;;;;;;;;;;;;;;16.39;48.06;101122.03;5029372;28;1201;-50
2023/05/01 09:13:39;;;;;;;;;;;;;;;17.07;48.05;101121.34;5017999;28;1043;-53
2023/05/01 09:16:04;;;;;;;;;;;;;;;16.77;48.63;101127.47;5017652;28;1083;-53
2023/05/01 09:18:30;;;;;;;;;;;;;;;16.56;47.82;101116.38;5014955;28;1319;-52
2023/05/01 09:20:56;;;;;;;;;;;;;;;16.48;47.61;101135.25;5009392;28;1143;-49
2023/05/01 09:23:21;;;;;;;;;;;;;;;17.62;47.07;101124.50;5018176;28;912;-49
2023/05/01 09:25:47;;;;;;;;;;;;;;;16.69;48.75;101126.06;5017935;28;1088;-52
2023/05/01 09:28:12;;;;;;;;;;;;;;;16.65;47.99;101127.69;5017506;28;1909;-49
2023/05/01 09:30:38;;;;;;;;;;;;;;;16.51;47.60;101126.47;5017955;28;1222;-51
2023/05/01 09:33:08;;;;;;;;;;;;;;;16.38;47.36;101125.88;5017873;28;1183;-47
2023/05/01 09:35:47;;;;;;;;;;;;;;;17.30;47.65;101123.91;5024222;28;993;-49
2023/05/01 09:38:16;;;;;;;;;;;;;;;16.63;48.12;101127.13;5025760;28;1135;-51
2023/05/01 09:40:41;;;;;;;;;;;;;;;16.43;47.85;101133.31;5017402;28;1517;-49
2023/05/01 09:43:07;;;;;;;;;;;;;;;16.35;47.36;101126.38;5016441;28;1131;-46
2023/05/01 09:45:32;;;;;;;;;;;;;;;16.24;47.08;101120.00;5018756;28;1106;-49
2023/05/01 09:48:09;;;;;;;;;;;;;;;16.30;46.97;101128.25;5026427;28;1909;-49
2023/05/01 09:50:35;;;;;;;;;;;;;;;17.20;47.65;101128.25;5017093;28;1019;-52
2023/05/01 09:53:00;;;;;;;;;;;;;;;16.54;47.92;101131.47;5017483;28;1090;-51
2023/05/01 09:55:26;;;;;;;;;;;;;;;16.47;47.48;101125.38;5016905;28;1004;-51
2023/05/01 09:57:52;;;;;;;;;;;;;;;17.22;47.64;101119.72;5020666;28;1253;-50
2023/05/01 10:00:20;;;;;;;;;;;;;;;16.62;48.42;101136.47;5019479;28;1233;-55
2023/05/01 10:02:46;;;;;;;;;;;;;;;16.49;47.68;101126.75;5016705;28;1150;-49
2023/05/01 10:05:12;;;;;;;;;;;;;;;16.46;47.04;101131.97;5016752;28;1063;-48
2023/05/01 10:07:38;;;;;;;;;;;;;;;16.22;46.99;101121.34;5016762;28;1914;-50
2023/05/01 10:10:15;;;;;;;;;;;;;;;17.12;46.91;101122.47;5021616;28;1047;-48
2023/05/01 10:12:41;;;;;;;;;;;;;;;16.63;47.71;101127.13;5018383;28;1109;-49
2023/05/01 10:15:07;;;;;;;;;;;;;;;16.46;47.41;101131.97;5016168;28;1112;-49
2023/05/01 10:17:32;;;;;;;;;;;;;;;16.31;47.07;101127.19;5015845;28;1065;-47
2023/05/01 10:19:58;;;;;;;;;;;;;;;16.30;46.69;101131.84;5017018;28;1079;-51
2023/05/01 10:22:25;;;;;;;;;;;;;;;17.56;46.65;101130.31;5017818;28;1237;-51
2023/05/01 10:24:51;;;;;;;;;;;;;;;16.69;47.77;101137.06;5015789;28;1192;-53
2023/05/01 10:27:16;;;;;;;;;;;;;;;16.35;47.92;101139.28;5030403;28;1914;-45
2023/05/01 10:29:42;;;;;;;;;;;;;;;16.36;47.33;101132.72;5015496;28;1136;-51
2023/05/01 10:32:07;;;;;;;;;;;;;;;16.30;46.94;101134.59;5015308;28;1080;-46
2023/05/01 10:34:33;;;;;;;;;;;;;;;17.28;47.00;101129.66;5015961;28;1119;-53
2023/05/01 10:37:03;;;;;;;;;;;;;;;16.83;48.02;101131.06;5019445;28;1170;-50
2023/05/01 10:39:32;;;;;;;;;;;;;;;16.48;48.05;101135.25;5016258;28;1142;-45
2023/05/01 10:41:57;;;;;;;;;;;;;;;16.40;47.35;101133.84;5016571;28;1185;-49
2023/05/01 10:44:23;;;;;;;;;;;;;;;17.61;47.13;101139.38;5011474;28;1033;-50
2023/05/01 10:46:49;;;;;;;;;;;;;;;16.79;48.37;101132.69;5016725;28;1906;-47
2023/05/01 10:49:15;;;;;;;;;;;;;;;16.55;47.76;101135.84;5018049;28;1055;-50
2023/05/01 10:52:02;;;;;;;;;;;;;;;16.52;47.63;101131.72;5016467;28;1191;-52
2023/05/01 10:54:28;;;;;;;;;;;;;;;16.91;48.14;101131.44;5016190;28;1106;-48
2023/05/01 10:56:55;;;;;;;;;;;;;;;16.52;48.19;101136.38;5016235;28;1138;-51
2023/05/01 10:59:20;;;;;;;;;;;;;;;16.43;47.43;101130.56;5019830;28;930;-47
2023/05/01 11:01:47;;;;;;;;;;;;;;;16.41;47.03;101135.47;5016370;28;1075;-48
2023/05/01 11:04:19;;;;;;;;;;;;;;;16.29;46.66;101112.91;5015417;28;1107;-50
2023/05/01 11:06:59;;;;;;;;;;;;;;;17.10;47.44;101129.03;5015618;28;1923;-47
2023/05/01 11:09:35;;;;;;;;;;;;;;;16.56;47.76;101132.00;5016241;28;1146;-46
2023/05/01 11:12:01;;;;;;;;;;;;;;;16.37;47.69;101131.63;5019716;28;888;-46
2023/05/01 11:14:26;;;;;;;;;;;;;;;16.21;47.36;101130.66;5016269;28;1008;-47
2023/05/01 11:16:52;;;;;;;;;;;;;;;16.24;46.68;101132.88;5016314;28;1071;-47
2023/05/01 11:19:17;;;;;;;;;;;;;;;17.52;46.38;101137.44;5015122;28;1112;-46
2023/05/01 11:21:43;;;;;;;;;;;;;;;16.65;47.85;101140.56;5015868;28;1163;-45
2023/05/01 11:24:08;;;;;;;;;;;;;;;16.40;47.66;101134.66;5026672;28;1059;-47
2023/05/01 11:26:41;;;;;;;;;;;;;;;17.57;46.79;101140.19;5019160;28;1979;-48
2023/05/01 11:29:06;;;;;;;;;;;;;;;16.80;47.91;101131.59;5019630;28;1038;-48
2023/05/01 11:31:32;;;;;;;;;;;;;;;16.57;47.68;101128.19;5019765;28;1063;-50
2023/05/01 11:33:58;;;;;;;;;;;;;;;16.38;47.25;101125.88;5019874;28;1171;-47
2023/05/01 11:36:23;;;;;;;;;;;;;;;17.03;47.45;101133.97;5021908;28;1009;-46
2023/05/01 11:38:50;;;;;;;;;;;;;;;17.00;48.04;101136.41;5034952;28;1035;-53
2023/05/01 11:41:18;;;;;;;;;;;;;;;16.61;48.00;101137.56;5019769;28;1015;-51
2023/05/01 11:43:50;;;;;;;;;;;;;;;16.41;47.45;101139.06;5019108;28;1183;-51
2023/05/01 11:46:22;;;;;;;;;;;;;;;17.36;47.27;101137.41;5019598;28;1241;-51
2023/05/01 11:48:49;;;;;;;;;;;;;;;16.84;47.82;101132.72;5019770;28;1920;-51
2023/05/01 11:51:14;;;;;;;;;;;;;;;17.83;47.01;101121.00;5019380;28;1035;-50
2023/05/01 11:53:40;;;;;;;;;;;;;;;18.06;47.30;101130.66;5019698;28;1187;-52
2023/05/01 11:56:17;;;;;;;;;;;;;;;17.14;48.81;101123.00;5019980;28;1167;-51
2023/05/01 11:58:43;;;;;;;;;;;;;;;16.87;48.14;101121.22;5026392;28;1056;-53
2023/05/01 12:01:08;;;;;;;;;;;;;;;16.76;47.54;101126.66;5022552;28;1173;-47
2023/05/01 12:03:41;;;;;;;;;;;;;;;16.71;47.03;101117.56;5019166;28;1060;-52
2023/05/01 12:06:08;;;;;;;;;;;;;;;16.49;46.99;101118.50;5018495;28;1087;-52
2023/05/01 12:08:34;;;;;;;;;;;;;;;16.41;46.71;101114.38;5029526;28;1910;-53
2023/05/01 12:10:59;;;;;;;;;;;;;;;16.38;46.52;101114.06;5035015;28;1078;-54
2023/05/01 12:13:25;;;;;;;;;;;;;;;16.31;46.38;101106.03;5007173;28;1253;-53
2023/05/01 12:15:52;;;;;;;;;;;;;;;16.92;47.39;101113.84;5016703;28;1017;-55
2023/05/01 12:18:17;;;;;;;;;;;;;;;16.54;47.41;101113.06;5019286;28;1098;-53
2023/05/01 12:20:44;;;;;;;;;;;;;;;16.45;46.84;101119.31;5019129;28;1127;-54
2023/05/01 12:23:10;;;;;;;;;;;;;;;16.33;46.64;101112.09;5024540;28;1122;-55
2023/05/01 12:25:36;;;;;;;;;;;;;;;17.51;46.81;101111.84;5021154;28;1137;-51
2023/05/01 12:28:03;;;;;;;;;;;;;;;16.85;47.86;101120.66;5018664;28;1898;-58
2023/05/01 12:30:28;;;;;;;;;;;;;;;16.64;47.55;101112.31;5018096;28;1117;-58
2023/05/01 12:32:55;;;;;;;;;;;;;;;16.49;47.08;101132.25;5018722;28;1114;-57
2023/05/01 12:35:21;;;;;;;;;;;;;;;16.33;47.11;101136.81;5018868;28;1390;-50
2023/05/01 12:37:46;;;;;;;;;;;;;;;17.15;47.36;101141.16;5020172;28;1214;-52
2023/05/01 12:40:12;;;;;;;;;;;;;;;16.66;47.62;101134.84;5018502;28;1130;-55
2023/05/01 12:42:38;;;;;;;;;;;;;;;16.47;47.36;101139.13;5018491;28;1071;-55
2023/05/01 12:45:03;;;;;;;;;;;;;;;17.35;47.41;101146.72;5018622;28;1103;-54
2023/05/01 12:47:35;;;;;;;;;;;;;;;16.64;48.19;101145.25;5023226;28;1977;-56